Time;durP1;ratioP1;P1;durP2;ratioP2;P2;SDS_P1;SDS_P2;PMS_P1;PMS_P2;Temp;Humidity;BMP_temperature;BMP_pressure;BME280_temperature;BME280_humidity;BME280_pressure;Samples;Min_cycle;Max_cycle;Signal;HPM_P1;HPM_P2
2022/01/11 00:00:29;;;;;;;10.77;3.88;;;;;;;-145.82;100.00;61645.16;4965267;28;20058;-70
2022/01/11 00:03:12;;;;;;;26.55;9.68;;;;;;;-145.82;100.00;61645.16;4960768;28;20243;-70
2022/01/11 00:05:52;;;;;;;15.13;6.13;;;;;;;-145.82;100.00;61645.16;4963171;28;20509;-70
2022/01/11 00:08:29;;;;;;;12.00;2.97;;;;;;;-145.82;100.00;61645.16;4962616;28;20031;-70
2022/01/11 00:11:02;;;;;;;3.65;1.88;;;;;;;-145.82;100.00;61645.16;4963220;28;20441;-70
2022/01/11 00:13:29;;;;;;;10.50;2.90;;;;;;;-145.82;100.00;61645.16;4962108;28;20114;-72
2022/01/11 00:15:54;;;;;;;7.78;2.70;;;;;;;-145.82;100.00;61645.16;4962639;28;20125;-69
2022/01/11 00:18:20;;;;;;;12.18;2.58;;;;;;;-145.82;100.00;61645.16;4977339;28;20502;-71
2022/01/11 00:20:46;;;;;;;7.20;2.25;;;;;;;-145.82;100.00;61645.16;4962529;28;20030;-72
2022/01/11 00:25:46;;;;;;;5.25;2.40;;;;;;;-145.82;100.00;61645.16;4962220;28;20683;-70
2022/01/11 00:28:15;;;;;;;5.80;2.25;;;;;;;-145.82;100.00;61645.16;4960877;28;20050;-71
2022/01/11 00:30:52;;;;;;;6.15;2.83;;;;;;;-145.82;100.00;61645.16;4976730;28;20055;-71
2022/01/11 00:33:25;;;;;;;8.38;2.60;;;;;;;-145.82;100.00;61645.16;4963715;28;20041;-71
2022/01/11 00:35:59;;;;;;;7.45;2.08;;;;;;;-145.82;100.00;61645.16;4963488;28;20048;-70
2022/01/11 00:38:37;;;;;;;5.00;2.58;;;;;;;-145.82;100.00;61645.16;4961758;28;20324;-70
2022/01/11 00:41:08;;;;;;;10.63;2.15;;;;;;;-145.82;100.00;61645.16;4961631;28;20134;-70
2022/01/11 00:43:34;;;;;;;;;;;;;;;-145.82;100.00;61645.16;4976722;28;20046;-70
2022/01/11 00:46:00;;;;;;;6.88;2.58;;;;;;;-145.82;100.00;61645.16;4976512;28;20345;-70
2022/01/11 00:48:27;;;;;;;5.60;2.35;;;;;;;-145.82;100.00;61645.16;4961924;28;20125;-70
2022/01/11 00:50:53;;;;;;;4.43;2.15;;;;;;;-145.82;100.00;61645.16;4961429;28;20488;-72
2022/01/11 00:53:19;;;;;;;5.32;2.25;;;;;;;-145.82;100.00;61645.16;4976366;28;20101;-72
2022/01/11 00:55:47;;;;;;;7.85;2.33;;;;;;;-145.82;100.00;61645.16;4962014;28;20207;-71
2022/01/11 00:58:14;;;;;;;4.97;1.60;;;;;;;-145.82;100.00;61645.16;4977171;28;20038;-71
2022/01/11 01:00:39;;;;;;;8.82;2.50;;;;;;;-145.82;100.00;61645.16;4961782;28;20043;-71
2022/01/11 01:03:05;;;;;;;10.95;2.10;;;;;;;-145.82;100.00;61645.16;4962564;28;20139;-70
2022/01/11 01:05:32;;;;;;;7.00;1.77;;;;;;;-145.82;100.00;61645.16;4963401;28;20026;-70
2022/01/11 01:07:59;;;;;;;3.10;0.88;;;;;;;-145.82;100.00;61645.16;4963714;28;20485;-70
2022/01/11 01:10:34;;;;;;;7.28;1.92;;;;;;;-145.82;100.00;61645.16;4978641;28;20041;-71
2022/01/11 01:13:01;;;;;;;4.68;2.20;;;;;;;-145.82;100.00;61645.16;4980095;28;20069;-70
2022/01/11 01:15:27;;;;;;;10.00;1.92;;;;;;;-145.82;100.00;61645.16;4979664;28;20481;-72
2022/01/11 01:17:56;;;;;;;4.43;1.73;;;;;;;-145.82;100.00;61645.16;4962419;28;20031;-71
2022/01/11 01:20:22;;;;;;;3.65;1.77;;;;;;;-145.82;100.00;61645.16;4967076;28;20258;-70
2022/01/11 01:22:50;;;;;;;3.95;1.77;;;;;;;-145.82;100.00;61645.16;4964981;28;20042;-71
2022/01/11 01:25:20;;;;;;;13.82;2.05;;;;;;;-145.82;100.00;61645.16;4965362;28;20031;-72
2022/01/11 01:27:47;;;;;;;3.75;1.88;;;;;;;-145.82;100.00;61645.16;4964077;28;20443;-70
2022/01/11 01:30:14;;;;;;;3.63;1.63;;;;;;;-145.82;100.00;61645.16;4964529;28;20461;-70
2022/01/11 01:32:40;;;;;;;7.78;2.17;;;;;;;-145.82;100.00;61645.16;4980430;28;20125;-72
2022/01/11 01:35:06;;;;;;;3.35;1.38;;;;;;;-145.82;100.00;61645.16;4979177;28;20452;-70
2022/01/11 01:37:32;;;;;;;6.57;1.92;;;;;;;-145.82;100.00;61645.16;4962410;28;20050;-70
2022/01/11 01:39:58;;;;;;;13.38;2.05;;;;;;;-145.82;100.00;61645.16;4962253;28;20513;-72
2022/01/11 01:42:28;;;;;;;3.17;1.40;;;;;;;-145.82;100.00;61645.16;4962886;28;20035;-70
2022/01/11 01:44:53;;;;;;;4.57;1.35;;;;;;;-145.82;100.00;61645.16;4980034;28;20243;-71
2022/01/11 01:47:19;;;;;;;5.85;1.88;;;;;;;-145.82;100.00;61645.16;4967095;28;20031;-70
2022/01/11 01:49:45;;;;;;;7.30;2.13;;;;;;;-145.82;100.00;61645.16;4966430;28;20042;-70
2022/01/11 01:52:11;;;;;;;10.82;2.13;;;;;;;-145.82;100.00;61645.16;4963971;28;20045;-70
2022/01/11 01:54:36;;;;;;;5.22;1.70;;;;;;;-145.82;100.00;61645.16;4965643;28;20046;-70
2022/01/11 01:57:04;;;;;;;8.10;1.80;;;;;;;-145.82;100.00;61645.16;4963407;28;20035;-70
2022/01/11 01:59:30;;;;;;;3.53;1.58;;;;;;;-145.82;100.00;61645.16;4966088;28;20485;-70
2022/01/11 02:01:57;;;;;;;6.03;1.33;;;;;;;-145.82;100.00;61645.16;4965086;28;20047;-70
2022/01/11 02:04:23;;;;;;;4.93;1.90;;;;;;;-145.82;100.00;61645.16;4983021;28;20109;-70
2022/01/11 02:06:48;;;;;;;5.22;2.05;;;;;;;-145.82;100.00;61645.16;4967542;28;20128;-72
2022/01/11 02:09:15;;;;;;;5.07;1.70;;;;;;;-145.82;100.00;61645.16;4966795;28;20121;-71
2022/01/11 02:11:41;;;;;;;6.70;1.23;;;;;;;-145.82;100.00;61645.16;4980700;28;20039;-71
2022/01/11 02:14:07;;;;;;;4.72;1.90;;;;;;;-145.82;100.00;61645.16;4981868;28;20109;-71
2022/01/11 02:16:33;;;;;;;5.82;2.13;;;;;;;-145.82;100.00;61645.16;4966393;28;20129;-70
2022/01/11 02:18:59;;;;;;;4.50;1.92;;;;;;;-145.82;100.00;61645.16;4982887;28;20118;-70
2022/01/11 02:21:25;;;;;;;4.28;1.77;;;;;;;-145.82;100.00;61645.16;4966873;28;20054;-70
2022/01/11 02:23:53;;;;;;;6.68;1.77;;;;;;;-145.82;100.00;61645.16;4981420;28;20121;-72
2022/01/11 02:26:22;;;;;;;8.60;2.35;;;;;;;-145.82;100.00;61645.16;4981315;28;20050;-72
2022/01/11 02:28:48;;;;;;;10.73;2.42;;;;;;;-145.82;100.00;61645.16;4982185;28;20081;-72
2022/01/11 02:31:14;;;;;;;6.80;2.40;;;;;;;-145.82;100.00;61645.16;4964472;28;20058;-71
2022/01/11 02:33:46;;;;;;;3.97;2.20;;;;;;;-145.82;100.00;61645.16;4982841;28;20445;-70
2022/01/11 02:36:33;;;;;;;4.93;2.22;;;;;;;-145.82;100.00;61645.16;4967896;28;20062;-72
2022/01/11 02:39:24;;;;;;;4.55;1.77;;;;;;;-145.82;100.00;61645.16;4982407;28;20046;-71
2022/01/11 02:41:56;;;;;;;7.60;3.63;;;;;;;-145.82;100.00;61645.16;4980676;28;20062;-71
2022/01/11 02:44:27;;;;;;;5.82;2.63;;;;;;;-145.82;100.00;61645.16;4983450;28;20102;-70
2022/01/11 02:46:53;;;;;;;14.63;4.72;;;;;;;-145.82;100.00;61645.16;4965389;28;20038;-70
2022/01/11 02:49:22;;;;;;;6.38;2.72;;;;;;;-145.82;100.00;61645.16;4966538;28;20505;-70
2022/01/11 02:51:54;;;;;;;6.70;2.58;;;;;;;-145.82;100.00;61645.16;4950332;28;20047;-69
2022/01/11 02:54:21;;;;;;;8.93;3.17;;;;;;;-145.82;100.00;61645.16;4980458;28;20284;-70
2022/01/11 02:56:50;;;;;;;12.30;3.65;;;;;;;-145.82;100.00;61645.16;4983455;28;20623;-70
2022/01/11 02:59:16;;;;;;;10.38;4.25;;;;;;;-145.82;100.00;61645.16;4966196;28;20077;-70
2022/01/11 03:01:42;;;;;;;13.20;3.83;;;;;;;-145.82;100.00;61645.16;4980675;28;20043;-70
2022/01/11 03:04:08;;;;;;;11.27;3.35;;;;;;;-145.82;100.00;61645.16;4981321;28;20054;-70
2022/01/11 03:06:34;;;;;;;12.57;3.78;;;;;;;-145.82;100.00;61645.16;4980806;28;20069;-70
2022/01/11 03:08:59;;;;;;;18.80;4.07;;;;;;;-145.82;100.00;61645.16;4966504;28;20062;-71
2022/01/11 03:11:32;;;;;;;13.65;4.28;;;;;;;-145.82;100.00;61645.16;4979445;28;20031;-72
2022/01/11 03:14:03;;;;;;;18.77;4.28;;;;;;;-145.82;100.00;61645.16;4979190;28;20042;-70
2022/01/11 03:16:29;;;;;;;;;;;;;;;-145.82;100.00;61645.16;4980545;28;20038;-70
2022/01/11 03:18:55;;;;;;;10.90;3.45;;;;;;;-145.82;100.00;61645.16;4979134;28;19913;-72
2022/01/11 03:21:21;;;;;;;18.42;6.75;;;;;;;-145.82;100.00;61645.16;4964514;28;20061;-72
2022/01/11 03:23:47;;;;;;;12.70;4.18;;;;;;;-145.82;100.00;61645.16;4980396;28;20442;-72
2022/01/11 03:26:13;;;;;;;16.20;5.53;;;;;;;-145.82;100.00;61645.16;4979902;28;20097;-72
2022/01/11 03:28:40;;;;;;;11.13;5.32;;;;;;;-145.82;100.00;61645.16;4980289;28;20498;-71
2022/01/11 03:31:06;;;;;;;14.93;5.10;;;;;;;-145.82;100.00;61645.16;4979052;28;20071;-70
2022/01/11 03:33:41;;;;;;;12.18;4.70;;;;;;;-145.82;100.00;61645.16;4964528;28;20046;-70
2022/01/11 03:36:07;;;;;;;16.45;4.65;;;;;;;-145.82;100.00;61645.16;4964491;28;20398;-72
2022/01/11 03:38:34;;;;;;;19.83;5.32;;;;;;;-145.82;100.00;61645.16;4979076;28;20037;-72
2022/01/11 03:41:05;;;;;;;10.90;4.75;;;;;;;-145.82;100.00;61645.16;4979031;28;20466;-70
2022/01/11 03:43:30;;;;;;;17.27;5.13;;;;;;;-145.82;100.00;61645.16;4964719;28;20035;-70
2022/01/11 03:45:57;;;;;;;19.27;7.35;;;;;;;-145.82;100.00;61645.16;4982126;28;20030;-71
2022/01/11 03:48:23;;;;;;;12.60;5.50;;;;;;;-145.82;100.00;61645.16;4978619;28;20042;-70
2022/01/11 03:50:53;;;;;;;19.33;5.32;;;;;;;-145.82;100.00;61645.16;4964112;28;20374;-70
2022/01/11 03:53:34;;;;;;;11.82;5.63;;;;;;;-145.82;100.00;61645.16;4963022;28;20067;-70
2022/01/11 03:56:12;;;;;;;17.02;5.45;;;;;;;-145.82;100.00;61645.16;4964355;28;20034;-70
2022/01/11 03:58:44;;;;;;;14.02;5.07;;;;;;;-145.82;100.00;61645.16;4977827;28;20568;-71
2022/01/11 04:01:09;;;;;;;16.63;6.50;;;;;;;-145.82;100.00;61645.16;4963538;28;20050;-70
2022/01/11 04:03:36;;;;;;;16.42;5.50;;;;;;;-145.82;100.00;61645.16;4961752;28;20149;-71
2022/01/11 04:06:02;;;;;;;13.18;6.30;;;;;;;-145.82;100.00;61645.16;4977934;28;20121;-70
2022/01/11 04:08:27;;;;;;;16.98;6.20;;;;;;;-145.82;100.00;61645.16;4977631;28;20070;-70
2022/01/11 04:10:53;;;;;;;16.33;7.15;;;;;;;-145.82;100.00;61645.16;4962946;28;20367;-71
2022/01/11 04:13:20;;;;;;;15.13;4.88;;;;;;;-145.82;100.00;61645.16;4977658;28;20030;-70
2022/01/11 04:15:45;;;;;;;18.52;5.85;;;;;;;-145.82;100.00;61645.16;4978635;28;20394;-70
2022/01/11 04:18:11;;;;;;;23.13;7.30;;;;;;;-145.82;100.00;61645.16;4977732;28;20133;-70
2022/01/11 04:20:37;;;;;;;17.23;5.85;;;;;;;-145.82;100.00;61645.16;4961822;28;20119;-70
2022/01/11 04:23:03;;;;;;;16.30;6.55;;;;;;;-145.82;100.00;61645.16;4962402;28;20042;-70
2022/01/11 04:25:28;;;;;;;27.55;8.00;;;;;;;-145.82;100.00;61645.16;4978210;28;20520;-72
2022/01/11 04:27:56;;;;;;;18.92;5.75;;;;;;;-145.82;100.00;61645.16;4977219;28;20054;-71
2022/01/11 04:30:22;;;;;;;18.90;7.30;;;;;;;-145.82;100.00;61645.16;4976251;28;20133;-71
2022/01/11 04:32:48;;;;;;;17.50;7.43;;;;;;;-145.82;100.00;61645.16;4962711;28;20063;-70
2022/01/11 04:35:16;;;;;;;13.40;6.50;;;;;;;-145.82;100.00;61645.16;4961295;28;20050;-72
2022/01/11 04:37:46;;;;;;;17.58;6.72;;;;;;;-145.82;100.00;61645.16;4978419;28;20077;-72
2022/01/11 04:40:13;;;;;;;14.40;5.80;;;;;;;-145.82;100.00;61645.16;4961850;28;20043;-70
2022/01/11 04:42:41;;;;;;;19.92;6.43;;;;;;;-145.82;100.00;61645.16;4977926;28;20039;-71
2022/01/11 04:45:10;;;;;;;16.85;7.13;;;;;;;-145.82;100.00;61645.16;4977920;28;20402;-70
2022/01/11 04:47:35;;;;;;;22.08;6.60;;;;;;;-145.82;100.00;61645.16;4979035;28;20421;-70
2022/01/11 04:50:01;;;;;;;12.55;4.88;;;;;;;-145.82;100.00;61645.16;4963347;28;20064;-70
2022/01/11 04:52:27;;;;;;;24.92;10.90;;;;;;;-145.82;100.00;61645.16;4962968;28;20039;-70
2022/01/11 04:54:52;;;;;;;27.33;14.73;;;;;;;-145.82;100.00;61645.16;4977150;28;20093;-72
2022/01/11 04:57:18;;;;;;;38.55;16.15;;;;;;;-145.82;100.00;61645.16;4977652;28;20035;-70
2022/01/11 04:59:43;;;;;;;22.55;9.88;;;;;;;-145.82;100.00;61645.16;4963209;28;20073;-71
2022/01/11 05:02:09;;;;;;;15.93;9.00;;;;;;;-145.82;100.00;61645.16;4975839;28;20157;-70
2022/01/11 05:04:36;;;;;;;16.67;6.35;;;;;;;-145.82;100.00;61645.16;4977755;28;20162;-72
2022/01/11 05:07:02;;;;;;;15.30;6.05;;;;;;;-145.82;100.00;61645.16;4977926;28;20505;-70
2022/01/11 05:09:28;;;;;;;17.73;7.00;;;;;;;-145.82;100.00;61645.16;4962268;28;20042;-70
2022/01/11 05:11:53;;;;;;;12.45;5.15;;;;;;;-145.82;100.00;61645.16;4960630;28;20031;-70
2022/01/11 05:14:19;;;;;;;14.48;6.10;;;;;;;-145.82;100.00;61645.16;4963092;28;20035;-70
2022/01/11 05:16:49;;;;;;;8.80;5.32;;;;;;;-145.82;100.00;61645.16;4962387;28;20039;-70
2022/01/11 05:19:15;;;;;;;12.63;6.07;;;;;;;-145.82;100.00;61645.16;4977966;28;20038;-70
2022/01/11 05:21:43;;;;;;;15.65;6.30;;;;;;;-145.82;100.00;61645.16;4977585;28;20066;-70
2022/01/11 05:24:10;;;;;;;13.35;7.82;;;;;;;-145.82;100.00;61645.16;4977822;28;20031;-70
2022/01/11 05:26:39;;;;;;;11.18;6.50;;;;;;;-145.82;100.00;61645.16;4978515;28;20541;-70
2022/01/11 05:29:04;;;;;;;17.30;8.45;;;;;;;-145.82;100.00;61645.16;4962971;28;20054;-71
2022/01/11 05:31:32;;;;;;;17.02;7.43;;;;;;;-145.82;100.00;61645.16;4964773;28;20050;-72
2022/01/11 05:33:58;;;;;;;14.27;6.60;;;;;;;-145.82;100.00;61645.16;4963601;28;20046;-71
2022/01/11 05:36:23;;;;;;;13.10;6.97;;;;;;;-145.82;100.00;61645.16;4982416;28;20047;-71
2022/01/11 05:38:49;;;;;;;16.42;6.15;;;;;;;-145.82;100.00;61645.16;4982495;28;20118;-70
2022/01/11 05:41:15;;;;;;;20.00;7.10;;;;;;;-145.82;100.00;61645.16;4980514;28;20039;-72
2022/01/11 05:43:41;;;;;;;15.63;6.13;;;;;;;-145.82;100.00;61645.16;4966597;28;20433;-70
2022/01/11 05:46:07;;;;;;;20.00;6.90;;;;;;;-145.82;100.00;61645.16;4980379;28;20394;-70
2022/01/11 05:48:36;;;;;;;11.25;5.60;;;;;;;-145.82;100.00;61645.16;4964105;28;20035;-70
2022/01/11 05:51:02;;;;;;;21.40;6.43;;;;;;;-145.82;100.00;61645.16;4964900;28;20047;-70
2022/01/11 05:53:29;;;;;;;15.18;5.15;;;;;;;-145.82;100.00;61645.16;4980988;28;20031;-70
2022/01/11 05:55:55;;;;;;;10.48;5.25;;;;;;;-145.82;100.00;61645.16;4963337;28;20428;-70
2022/01/11 05:58:23;;;;;;;15.70;6.88;;;;;;;-145.82;100.00;61645.16;4980795;28;20073;-70
2022/01/11 06:00:50;;;;;;;13.02;6.10;;;;;;;-145.82;100.00;61645.16;4980101;28;20035;-70
2022/01/11 06:03:17;;;;;;;15.88;6.18;;;;;;;-145.82;100.00;61645.16;4980901;28;20047;-71
2022/01/11 06:05:47;;;;;;;21.77;7.25;;;;;;;-145.82;100.00;61645.16;4980359;28;20374;-71
2022/01/11 06:08:16;;;;;;;22.88;7.28;;;;;;;-145.82;100.00;61645.16;4978808;28;20129;-72
2022/01/11 06:10:45;;;;;;;29.35;6.40;;;;;;;-145.82;100.00;61645.16;4981431;28;20495;-70
2022/01/11 06:13:12;;;;;;;18.20;6.22;;;;;;;-145.82;100.00;61645.16;4979546;28;20129;-70
2022/01/11 06:15:38;;;;;;;11.10;5.43;;;;;;;-145.82;100.00;61645.16;4981231;28;20045;-70
2022/01/11 06:18:05;;;;;;;12.48;6.38;;;;;;;-145.82;100.00;61645.16;4963458;28;20441;-70
2022/01/11 06:20:37;;;;;;;17.23;5.38;;;;;;;-145.82;100.00;61645.16;4979149;28;20039;-70
2022/01/11 06:23:03;;;;;;;15.88;5.82;;;;;;;-145.82;100.00;61645.16;4978880;28;20034;-71
2022/01/11 06:25:28;;;;;;;12.60;5.03;;;;;;;-145.82;100.00;61645.16;4980277;28;20033;-70
2022/01/11 06:27:54;;;;;;;12.27;3.63;;;;;;;-145.82;100.00;61645.16;4964148;28;20605;-72
2022/01/11 06:30:20;;;;;;;7.72;3.55;;;;;;;-145.82;100.00;61645.16;4962940;28;20542;-70
2022/01/11 06:32:46;;;;;;;8.93;5.18;;;;;;;-145.82;100.00;61645.16;4966560;28;20043;-70
2022/01/11 06:35:16;;;;;;;9.52;3.63;;;;;;;-145.82;100.00;61645.16;4967153;28;20042;-70
2022/01/11 06:37:44;;;;;;;;;;;;;;;-145.82;100.00;61645.16;4981835;28;20039;-70
2022/01/11 06:40:13;;;;;;;4.95;2.30;;;;;;;-145.82;100.00;61645.16;4979534;28;19965;-71
2022/01/11 06:42:39;;;;;;;8.13;4.50;;;;;;;-145.82;100.00;61645.16;4980865;28;20043;-70
2022/01/11 06:45:05;;;;;;;13.95;5.90;;;;;;;-145.82;100.00;61645.16;4981228;28;20041;-70
2022/01/11 06:47:32;;;;;;;3.92;2.72;;;;;;;-145.82;100.00;61645.16;4980092;28;20034;-71
2022/01/11 06:49:58;;;;;;;20.10;4.25;;;;;;;-145.82;100.00;61645.16;4979212;28;20050;-70
2022/01/11 06:52:25;;;;;;;6.15;3.78;;;;;;;-145.82;100.00;61645.16;4978545;28;20034;-70
2022/01/11 06:54:51;;;;;;;6.30;2.85;;;;;;;-145.82;100.00;61645.16;4981237;28;20085;-71
2022/01/11 06:57:16;;;;;;;9.98;3.58;;;;;;;-145.82;100.00;61645.16;4964982;28;20126;-71
2022/01/11 06:59:43;;;;;;;16.10;4.38;;;;;;;-145.82;100.00;61645.16;4965826;28;20358;-70
2022/01/11 07:02:10;;;;;;;7.63;3.22;;;;;;;-145.82;100.00;61645.16;4978874;28;20425;-70
2022/01/11 07:04:49;;;;;;;13.35;4.30;;;;;;;-145.82;100.00;61645.16;4979463;28;20035;-72
2022/01/11 07:07:16;;;;;;;13.10;3.80;;;;;;;-145.82;100.00;61645.16;4977731;28;20674;-71
2022/01/11 07:09:44;;;;;;;10.98;4.05;;;;;;;-145.82;100.00;61645.16;4980506;28;20385;-71
2022/01/11 07:12:10;;;;;;;12.95;4.30;;;;;;;-145.82;100.00;61645.16;4964765;28;20113;-72
2022/01/11 07:14:38;;;;;;;8.40;3.92;;;;;;;-145.82;100.00;61645.16;4980056;28;20796;-70
2022/01/11 07:17:03;;;;;;;6.88;4.35;;;;;;;-145.82;100.00;61645.16;4977432;28;20049;-70
2022/01/11 07:19:29;;;;;;;7.45;3.97;;;;;;;-145.82;100.00;61645.16;4962021;28;20050;-72
2022/01/11 07:21:59;;;;;;;10.77;4.65;;;;;;;-145.82;100.00;61645.16;4962187;28;20126;-70
2022/01/11 07:24:27;;;;;;;10.90;5.50;;;;;;;-145.82;100.00;61645.16;4980047;28;20042;-71
2022/01/11 07:26:53;;;;;;;4.93;1.98;;;;;;;-145.82;100.00;61645.16;4977891;28;20038;-70
2022/01/11 07:29:19;;;;;;;6.50;3.45;;;;;;;-145.82;100.00;61645.16;4963331;28;20058;-71
2022/01/11 07:31:45;;;;;;;13.02;4.78;;;;;;;-145.82;100.00;61645.16;4979420;28;20047;-70
2022/01/11 07:34:13;;;;;;;5.88;3.03;;;;;;;-145.82;100.00;61645.16;4964321;28;20043;-71
2022/01/11 07:36:40;;;;;;;4.13;3.13;;;;;;;-145.82;100.00;61645.16;4980647;28;20542;-70
2022/01/11 07:39:06;;;;;;;10.13;4.55;;;;;;;-145.82;100.00;61645.16;4978139;28;20138;-70
2022/01/11 07:41:33;;;;;;;14.48;4.03;;;;;;;-145.82;100.00;61645.16;4979469;28;20116;-70
2022/01/11 07:44:31;;;;;;;9.35;2.15;;;;;;;-145.82;100.00;61645.16;4953482;28;20055;-70
2022/01/11 07:46:57;;;;;;;9.88;3.83;;;;;;;-145.82;100.00;61645.16;4962559;28;20031;-70
2022/01/11 07:49:28;;;;;;;7.72;3.55;;;;;;;-145.82;100.00;61645.16;4980120;28;20360;-71
2022/01/11 07:51:54;;;;;;;11.05;3.92;;;;;;;-145.82;100.00;61645.16;4965941;28;20045;-70
2022/01/11 07:54:20;;;;;;;17.55;4.32;;;;;;;-145.82;100.00;61645.16;4981108;28;20380;-69
2022/01/11 07:56:46;;;;;;;7.63;4.25;;;;;;;-145.82;100.00;61645.16;4978890;28;20493;-70
2022/01/11 07:59:14;;;;;;;6.65;3.83;;;;;;;-145.82;100.00;61645.16;4979431;28;20031;-71
2022/01/11 08:01:43;;;;;;;18.00;8.00;;;;;;;-145.82;100.00;61645.16;4980844;28;20094;-72
2022/01/11 08:04:10;;;;;;;11.75;4.43;;;;;;;-145.82;100.00;61645.16;4979683;28;20093;-71
2022/01/11 08:06:40;;;;;;;15.00;7.38;;;;;;;-145.82;100.00;61645.16;4979061;28;20086;-70
2022/01/11 08:09:14;;;;;;;14.23;6.13;;;;;;;-145.82;100.00;61645.16;4978723;28;20460;-72
2022/01/11 08:11:40;;;;;;;14.02;6.05;;;;;;;-145.82;100.00;61645.16;4979103;28;20042;-70
2022/01/11 08:14:06;;;;;;;15.15;6.05;;;;;;;-145.82;100.00;61645.16;4979665;28;20034;-69
2022/01/11 08:16:33;;;;;;;18.33;4.07;;;;;;;-145.82;100.00;61645.16;4977250;28;20462;-71
2022/01/11 08:18:59;;;;;;;17.42;5.95;;;;;;;-145.82;100.00;61645.16;4979080;28;20034;-73
2022/01/11 08:21:25;;;;;;;19.65;3.80;;;;;;;-145.82;100.00;61645.16;4962810;28;20035;-72
2022/01/11 08:23:52;;;;;;;7.75;4.20;;;;;;;-145.82;100.00;61645.16;4977871;28;20039;-71
2022/01/11 08:26:18;;;;;;;4.95;2.33;;;;;;;-145.82;100.00;61645.16;4977976;28;20174;-72
2022/01/11 08:28:44;;;;;;;12.77;4.78;;;;;;;-145.82;100.00;61645.16;4978629;28;20034;-70
2022/01/11 08:31:11;;;;;;;4.07;2.85;;;;;;;-145.82;100.00;61645.16;4977067;28;20059;-71
2022/01/11 08:33:43;;;;;;;7.07;3.40;;;;;;;-145.82;100.00;61645.16;4979644;28;20062;-70
2022/01/11 08:36:10;;;;;;;13.57;4.28;;;;;;;-145.82;100.00;61645.16;4979376;28;20042;-70
2022/01/11 08:38:37;;;;;;;8.98;4.05;;;;;;;-145.82;100.00;61645.16;4976971;28;20027;-71
2022/01/11 08:41:07;;;;;;;10.02;4.18;;;;;;;-145.82;100.00;61645.16;4978310;28;20057;-70
2022/01/11 08:43:33;;;;;;;8.10;4.05;;;;;;;-145.82;100.00;61645.16;4976933;28;20031;-71
2022/01/11 08:45:59;;;;;;;9.02;4.97;;;;;;;-145.82;100.00;61645.16;4978426;28;20031;-71
2022/01/11 08:48:26;;;;;;;7.07;3.25;;;;;;;-145.82;100.00;61645.16;4977427;28;20089;-72
2022/01/11 08:51:06;;;;;;;7.72;3.78;;;;;;;-145.82;100.00;61645.16;4977327;28;20047;-70
2022/01/11 08:53:33;;;;;;;12.63;4.45;;;;;;;-145.82;100.00;61645.16;4975890;28;20451;-71
2022/01/11 08:56:05;;;;;;;9.10;3.33;;;;;;;-145.82;100.00;61645.16;4977939;28;20110;-71
2022/01/11 08:58:34;;;;;;;9.77;3.97;;;;;;;-145.82;100.00;61645.16;4976958;28;20041;-71
2022/01/11 09:00:59;;;;;;;14.55;6.32;;;;;;;-145.82;100.00;61645.16;4976314;28;20260;-72
2022/01/11 09:03:27;;;;;;;8.50;4.18;;;;;;;-145.82;100.00;61645.16;4978174;28;20098;-72
2022/01/11 09:05:53;;;;;;;8.10;4.03;;;;;;;-145.82;100.00;61645.16;4979163;28;20341;-72
2022/01/11 09:08:20;;;;;;;14.77;3.97;;;;;;;-145.82;100.00;61645.16;4961974;28;20057;-72
2022/01/11 09:10:46;;;;;;;10.13;3.58;;;;;;;-145.82;100.00;61645.16;4983359;28;20090;-70
2022/01/11 09:13:12;;;;;;;9.13;3.60;;;;;;;-145.82;100.00;61645.16;4964701;28;20086;-71
2022/01/11 09:15:37;;;;;;;8.68;4.30;;;;;;;-145.82;100.00;61645.16;4982640;28;20093;-71
2022/01/11 09:18:05;;;;;;;11.05;4.15;;;;;;;-145.82;100.00;61645.16;4981132;28;20093;-70
2022/01/11 09:20:33;;;;;;;9.35;3.88;;;;;;;-145.82;100.00;61645.16;4982490;28;20390;-71
2022/01/11 09:22:59;;;;;;;14.18;4.18;;;;;;;-145.82;100.00;61645.16;4980802;28;20035;-71
2022/01/11 09:25:27;;;;;;;9.65;4.72;;;;;;;-145.82;100.00;61645.16;4982498;28;20034;-71
2022/01/11 09:27:58;;;;;;;;;;;;;;;-145.82;100.00;61645.16;4981498;28;20490;-70
2022/01/11 09:30:25;;;;;;;13.23;5.10;;;;;;;-145.82;100.00;61645.16;4981260;28;19926;-72
2022/01/11 09:32:54;;;;;;;15.38;5.25;;;;;;;-145.82;100.00;61645.16;4982079;28;20098;-71
2022/01/11 09:35:20;;;;;;;11.25;4.88;;;;;;;-145.82;100.00;61645.16;4982487;28;20113;-70
2022/01/11 09:37:52;;;;;;;16.08;5.15;;;;;;;-145.82;100.00;61645.16;4981667;28;20074;-71
2022/01/11 09:40:17;;;;;;;18.05;6.13;;;;;;;-145.82;100.00;61645.16;4966875;28;20413;-70
2022/01/11 09:42:47;;;;;;;14.73;5.32;;;;;;;-145.82;100.00;61645.16;4981464;28;20093;-73
2022/01/11 09:45:13;;;;;;;12.48;4.38;;;;;;;-145.82;100.00;61645.16;4980808;28;20047;-71
2022/01/11 09:47:44;;;;;;;12.05;5.72;;;;;;;-145.82;100.00;61645.16;4980960;28;20043;-71
2022/01/11 09:50:15;;;;;;;18.40;5.93;;;;;;;-145.82;100.00;61645.16;4964923;28;20093;-72
2022/01/11 09:52:46;;;;;;;11.18;5.00;;;;;;;-145.82;100.00;61645.16;4981247;28;20045;-72
2022/01/11 09:55:13;;;;;;;17.83;6.43;;;;;;;-145.82;100.00;61645.16;4980859;28;20050;-71
2022/01/11 09:57:41;;;;;;;21.50;5.88;;;;;;;-145.82;100.00;61645.16;4980157;28;20073;-73
2022/01/11 10:00:33;;;;;;;16.38;5.60;;;;;;;-145.82;100.00;61645.16;4965876;28;20113;-69
2022/01/11 10:03:14;;;;;;;14.70;6.53;;;;;;;-145.82;100.00;61645.16;4982267;28;20737;-69
2022/01/11 10:05:52;;;;;;;16.88;5.55;;;;;;;-145.82;100.00;61645.16;4980342;28;20043;-71
2022/01/11 10:08:28;;;;;;;21.55;9.38;;;;;;;-145.82;100.00;61645.16;4980707;28;20035;-69
2022/01/11 10:10:57;;;;;;;20.95;9.02;;;;;;;-145.82;100.00;61645.16;4980693;28;20043;-70
2022/01/11 10:13:29;;;;;;;22.08;7.95;;;;;;;-145.82;100.00;61645.16;4964031;28;20035;-70
2022/01/11 10:15:54;;;;;;;20.02;6.85;;;;;;;-145.82;100.00;61645.16;4980981;28;20393;-70
2022/01/11 10:18:37;;;;;;;19.95;7.38;;;;;;;-145.82;100.00;61645.16;4979393;28;20659;-71
2022/01/11 10:21:37;;;;;;;18.73;7.72;;;;;;;-145.82;100.00;61645.16;4980833;28;20057;-70
2022/01/11 10:24:25;;;;;;;16.70;6.85;;;;;;;-145.82;100.00;61645.16;4964067;28;20031;-69
2022/01/11 10:26:56;;;;;;;14.65;6.50;;;;;;;-145.82;100.00;61645.16;4978546;28;20362;-71
2022/01/11 10:29:37;;;;;;;18.70;7.35;;;;;;;-145.82;100.00;61645.16;4965502;28;20061;-69
2022/01/11 10:32:41;;;;;;;17.17;6.88;;;;;;;-145.82;100.00;61645.16;4980260;28;20047;-69
2022/01/11 10:35:32;;;;;;;18.27;6.30;;;;;;;-145.82;100.00;61645.16;4979345;28;20307;-69
2022/01/11 10:38:02;;;;;;;19.73;6.43;;;;;;;-145.82;100.00;61645.16;4979532;28;20050;-69
2022/01/11 10:40:34;;;;;;;17.23;6.40;;;;;;;-145.82;100.00;61645.16;4981728;28;20880;-69
2022/01/11 10:43:04;;;;;;;17.23;7.82;;;;;;;-145.82;100.00;61645.16;4980094;28;20359;-69
2022/01/11 10:45:33;;;;;;;17.27;6.63;;;;;;;-145.82;100.00;61645.16;4980150;28;20035;-70
2022/01/11 10:48:05;;;;;;;17.75;6.45;;;;;;;-145.82;100.00;61645.16;4979850;28;20265;-69
2022/01/11 10:50:44;;;;;;;13.82;6.07;;;;;;;-145.82;100.00;61645.16;4980585;28;20053;-69
2022/01/11 10:53:16;;;;;;;11.77;6.13;;;;;;;-145.82;100.00;61645.16;4980642;28;20216;-69
2022/01/11 10:55:43;;;;;;;10.68;5.97;;;;;;;-145.82;100.00;61645.16;4980816;28;20026;-69
2022/01/11 10:58:12;;;;;;;19.27;6.38;;;;;;;-145.82;100.00;61645.16;4964127;28;20290;-69
2022/01/11 11:00:50;;;;;;;15.80;6.13;;;;;;;-145.82;100.00;61645.16;4978987;28;20522;-69
2022/01/11 11:03:19;;;;;;;14.25;6.60;;;;;;;-145.82;100.00;61645.16;4980244;28;20046;-70
2022/01/11 11:06:07;;;;;;;15.23;7.20;;;;;;;-145.82;100.00;61645.16;4979503;28;20030;-68
2022/01/11 11:08:39;;;;;;;17.08;8.13;;;;;;;-145.82;100.00;61645.16;4978802;28;20587;-69
2022/01/11 11:11:27;;;;;;;14.00;6.22;;;;;;;-145.82;100.00;61645.16;4962575;28;20359;-69
2022/01/11 11:14:11;;;;;;;16.23;6.35;;;;;;;-145.82;100.00;61645.16;4964281;28;20093;-69